sensor_id;sensor_type;location;lat;lon;timestamp;P1;durP1;ratioP1;P2;durP2;ratioP2
20928;SDS011;21895;47.072;15.132;2023-04-01T00:01:09;2.77;;;1.50;;
20928;SDS011;21895;47.072;15.132;2023-04-01T00:03:39;3.40;;;1.20;;
20928;SDS011;21895;47.072;15.132;2023-04-01T00:06:06;4.63;;;1.43;;
20928;SDS011;21895;47.072;15.132;2023-04-01T00:08:35;3.67;;;1.53;;
20928;SDS011;21895;47.072;15.132;2023-04-01T00:11:01;4.17;;;1.17;;
20928;SDS011;21895;47.072;15.132;2023-04-01T00:13:28;5.03;;;1.40;;
20928;SDS011;21895;47.072;15.132;2023-04-01T00:15:55;3.77;;;1.87;;
20928;SDS011;21895;47.072;15.132;2023-04-01T00:18:22;4.20;;;2.60;;
20928;SDS011;21895;47.072;15.132;2023-04-01T00:20:50;4.10;;;2.10;;
20928;SDS011;21895;47.072;15.132;2023-04-01T00:23:17;5.07;;;1.50;;
20928;SDS011;21895;47.072;15.132;2023-04-01T00:25:45;1.90;;;1.17;;
20928;SDS011;21895;47.072;15.132;2023-04-01T00:28:16;2.67;;;1.43;;
20928;SDS011;21895;47.072;15.132;2023-04-01T00:30:45;2.20;;;1.17;;
20928;SDS011;21895;47.072;15.132;2023-04-01T00:33:13;1.10;;;1.00;;
20928;SDS011;21895;47.072;15.132;2023-04-01T00:35:40;4.47;;;1.10;;
20928;SDS011;21895;47.072;15.132;2023-04-01T00:38:07;1.93;;;1.00;;
20928;SDS011;21895;47.072;15.132;2023-04-01T00:40:35;2.00;;;1.17;;
20928;SDS011;21895;47.072;15.132;2023-04-01T00:43:09;1.13;;;1.00;;
20928;SDS011;21895;47.072;15.132;2023-04-01T00:45:47;3.67;;;1.20;;
20928;SDS011;21895;47.072;15.132;2023-04-01T00:48:16;1.53;;;1.03;;
20928;SDS011;21895;47.072;15.132;2023-04-01T00:50:49;4.50;;;1.43;;
20928;SDS011;21895;47.072;15.132;2023-04-01T00:53:34;4.60;;;1.57;;
20928;SDS011;21895;47.072;15.132;2023-04-01T00:56:10;1.77;;;1.33;;
20928;SDS011;21895;47.072;15.132;2023-04-01T00:59:04;4.63;;;1.40;;
20928;SDS011;21895;47.072;15.132;2023-04-01T01:01:40;3.63;;;1.40;;
20928;SDS011;21895;47.072;15.132;2023-04-01T01:04:07;1.90;;;1.10;;
20928;SDS011;21895;47.072;15.132;2023-04-01T01:08:01;1.33;;;1.10;;
20928;SDS011;21895;47.072;15.132;2023-04-01T01:10:50;5.57;;;1.50;;
20928;SDS011;21895;47.072;15.132;2023-04-01T01:13:26;2.10;;;1.27;;
20928;SDS011;21895;47.072;15.132;2023-04-01T01:16:24;3.53;;;1.30;;
20928;SDS011;21895;47.072;15.132;2023-04-01T01:18:58;1.43;;;1.13;;
20928;SDS011;21895;47.072;15.132;2023-04-01T01:23:52;1.00;;;0.90;;
20928;SDS011;21895;47.072;15.132;2023-04-01T01:33:48;1.70;;;0.93;;
20928;SDS011;21895;47.072;15.132;2023-04-01T01:39:08;1.87;;;1.10;;
20928;SDS011;21895;47.072;15.132;2023-04-01T01:41:36;2.03;;;0.93;;
20928;SDS011;21895;47.072;15.132;2023-04-01T01:44:05;2.03;;;1.10;;
20928;SDS011;21895;47.072;15.132;2023-04-01T01:46:35;2.20;;;1.20;;
20928;SDS011;21895;47.072;15.132;2023-04-01T01:49:04;3.70;;;1.40;;
20928;SDS011;21895;47.072;15.132;2023-04-01T01:51:35;2.80;;;1.40;;
20928;SDS011;21895;47.072;15.132;2023-04-01T01:54:02;2.23;;;1.47;;
20928;SDS011;21895;47.072;15.132;2023-04-01T01:56:28;3.77;;;1.30;;
20928;SDS011;21895;47.072;15.132;2023-04-01T01:59:02;1.43;;;1.27;;
20928;SDS011;21895;47.072;15.132;2023-04-01T02:01:36;1.53;;;1.10;;
20928;SDS011;21895;47.072;15.132;2023-04-01T02:04:08;4.47;;;1.40;;
20928;SDS011;21895;47.072;15.132;2023-04-01T02:06:37;4.90;;;1.50;;
20928;SDS011;21895;47.072;15.132;2023-04-01T02:09:11;1.70;;;1.03;;
20928;SDS011;21895;47.072;15.132;2023-04-01T02:11:43;1.57;;;1.17;;
20928;SDS011;21895;47.072;15.132;2023-04-01T02:14:19;1.40;;;1.10;;
20928;SDS011;21895;47.072;15.132;2023-04-01T02:20:14;1.07;;;0.90;;
20928;SDS011;21895;47.072;15.132;2023-04-01T02:22:53;1.50;;;1.10;;
20928;SDS011;21895;47.072;15.132;2023-04-01T02:25:23;1.70;;;1.10;;
20928;SDS011;21895;47.072;15.132;2023-04-01T02:28:00;1.37;;;1.10;;
20928;SDS011;21895;47.072;15.132;2023-04-01T02:30:31;6.77;;;1.20;;
20928;SDS011;21895;47.072;15.132;2023-04-01T02:33:01;1.40;;;1.07;;
20928;SDS011;21895;47.072;15.132;2023-04-01T02:35:30;1.53;;;1.10;;
20928;SDS011;21895;47.072;15.132;2023-04-01T02:37:59;2.40;;;1.20;;
20928;SDS011;21895;47.072;15.132;2023-04-01T02:40:27;1.13;;;0.90;;
20928;SDS011;21895;47.072;15.132;2023-04-01T02:42:53;1.60;;;1.10;;
20928;SDS011;21895;47.072;15.132;2023-04-01T02:45:20;1.90;;;1.20;;
20928;SDS011;21895;47.072;15.132;2023-04-01T02:47:46;3.00;;;1.23;;
20928;SDS011;21895;47.072;15.132;2023-04-01T02:50:13;4.57;;;1.30;;
20928;SDS011;21895;47.072;15.132;2023-04-01T02:52:40;1.17;;;0.83;;
20928;SDS011;21895;47.072;15.132;2023-04-01T02:55:07;2.00;;;0.93;;
20928;SDS011;21895;47.072;15.132;2023-04-01T02:57:34;1.70;;;1.03;;
20928;SDS011;21895;47.072;15.132;2023-04-01T03:00:01;2.47;;;1.20;;
20928;SDS011;21895;47.072;15.132;2023-04-01T03:02:29;2.03;;;1.00;;
20928;SDS011;21895;47.072;15.132;2023-04-01T03:04:55;1.27;;;1.00;;
20928;SDS011;21895;47.072;15.132;2023-04-01T03:07:23;2.80;;;1.30;;
20928;SDS011;21895;47.072;15.132;2023-04-01T03:09:50;1.67;;;1.23;;
20928;SDS011;21895;47.072;15.132;2023-04-01T03:12:16;2.27;;;1.03;;
20928;SDS011;21895;47.072;15.132;2023-04-01T03:14:43;2.17;;;1.40;;
20928;SDS011;21895;47.072;15.132;2023-04-01T03:17:09;1.83;;;1.10;;
20928;SDS011;21895;47.072;15.132;2023-04-01T03:19:36;1.73;;;1.40;;
20928;SDS011;21895;47.072;15.132;2023-04-01T03:22:02;1.00;;;0.93;;
20928;SDS011;21895;47.072;15.132;2023-04-01T03:24:29;1.90;;;1.03;;
20928;SDS011;21895;47.072;15.132;2023-04-01T03:26:55;1.37;;;1.00;;
20928;SDS011;21895;47.072;15.132;2023-04-01T03:29:22;1.00;;;0.80;;
20928;SDS011;21895;47.072;15.132;2023-04-01T03:31:48;2.83;;;0.90;;
20928;SDS011;21895;47.072;15.132;2023-04-01T03:34:15;0.80;;;0.80;;
20928;SDS011;21895;47.072;15.132;2023-04-01T03:36:41;1.40;;;1.00;;
20928;SDS011;21895;47.072;15.132;2023-04-01T03:39:08;2.73;;;1.10;;
20928;SDS011;21895;47.072;15.132;2023-04-01T03:41:35;3.57;;;1.30;;
20928;SDS011;21895;47.072;15.132;2023-04-01T03:44:04;1.47;;;1.03;;
20928;SDS011;21895;47.072;15.132;2023-04-01T03:46:31;2.30;;;1.00;;
20928;SDS011;21895;47.072;15.132;2023-04-01T03:48:58;1.60;;;0.97;;
20928;SDS011;21895;47.072;15.132;2023-04-01T03:51:24;1.10;;;1.00;;
20928;SDS011;21895;47.072;15.132;2023-04-01T03:53:51;1.93;;;1.00;;
20928;SDS011;21895;47.072;15.132;2023-04-01T03:56:17;1.60;;;1.20;;
20928;SDS011;21895;47.072;15.132;2023-04-01T03:58:44;3.03;;;1.17;;
20928;SDS011;21895;47.072;15.132;2023-04-01T04:01:14;7.77;;;1.20;;
20928;SDS011;21895;47.072;15.132;2023-04-01T04:03:44;2.07;;;0.80;;
20928;SDS011;21895;47.072;15.132;2023-04-01T04:06:11;1.47;;;1.00;;
20928;SDS011;21895;47.072;15.132;2023-04-01T04:08:39;2.00;;;0.93;;
20928;SDS011;21895;47.072;15.132;2023-04-01T04:11:06;2.63;;;1.67;;
20928;SDS011;21895;47.072;15.132;2023-04-01T04:13:33;9.10;;;2.30;;
20928;SDS011;21895;47.072;15.132;2023-04-01T04:16:01;7.17;;;1.67;;
20928;SDS011;21895;47.072;15.132;2023-04-01T04:18:29;2.37;;;1.10;;
20928;SDS011;21895;47.072;15.132;2023-04-01T04:20:55;1.30;;;1.00;;
20928;SDS011;21895;47.072;15.132;2023-04-01T04:23:23;2.30;;;1.17;;
20928;SDS011;21895;47.072;15.132;2023-04-01T04:25:56;1.70;;;1.10;;
20928;SDS011;21895;47.072;15.132;2023-04-01T04:28:32;2.37;;;1.20;;
20928;SDS011;21895;47.072;15.132;2023-04-01T04:30:59;1.80;;;1.00;;
20928;SDS011;21895;47.072;15.132;2023-04-01T04:33:27;3.47;;;1.33;;
20928;SDS011;21895;47.072;15.132;2023-04-01T04:35:57;2.23;;;1.40;;
20928;SDS011;21895;47.072;15.132;2023-04-01T04:38:25;3.80;;;1.13;;
20928;SDS011;21895;47.072;15.132;2023-04-01T04:40:52;1.30;;;0.90;;
20928;SDS011;21895;47.072;15.132;2023-04-01T04:43:19;4.70;;;1.00;;
20928;SDS011;21895;47.072;15.132;2023-04-01T04:45:46;2.37;;;0.90;;
20928;SDS011;21895;47.072;15.132;2023-04-01T04:48:13;1.53;;;1.07;;
20928;SDS011;21895;47.072;15.132;2023-04-01T04:50:49;4.37;;;1.13;;
20928;SDS011;21895;47.072;15.132;2023-04-01T04:53:17;3.03;;;1.10;;
20928;SDS011;21895;47.072;15.132;2023-04-01T04:55:49;2.90;;;1.43;;
20928;SDS011;21895;47.072;15.132;2023-04-01T04:58:15;1.70;;;1.40;;
20928;SDS011;21895;47.072;15.132;2023-04-01T05:00:43;1.50;;;1.30;;
20928;SDS011;21895;47.072;15.132;2023-04-01T05:03:10;1.83;;;1.00;;
20928;SDS011;21895;47.072;15.132;2023-04-01T05:05:38;5.23;;;1.20;;
20928;SDS011;21895;47.072;15.132;2023-04-01T05:08:05;3.67;;;1.70;;
20928;SDS011;21895;47.072;15.132;2023-04-01T05:10:32;2.23;;;1.10;;
20928;SDS011;21895;47.072;15.132;2023-04-01T05:12:59;1.93;;;1.10;;
20928;SDS011;21895;47.072;15.132;2023-04-01T05:15:25;1.20;;;1.10;;
20928;SDS011;21895;47.072;15.132;2023-04-01T05:17:52;3.27;;;1.00;;
20928;SDS011;21895;47.072;15.132;2023-04-01T05:20:18;1.20;;;1.10;;
20928;SDS011;21895;47.072;15.132;2023-04-01T05:22:45;4.80;;;1.80;;
20928;SDS011;21895;47.072;15.132;2023-04-01T05:25:11;1.73;;;1.20;;
20928;SDS011;21895;47.072;15.132;2023-04-01T05:27:38;3.60;;;1.10;;
20928;SDS011;21895;47.072;15.132;2023-04-01T05:30:05;2.27;;;1.10;;
20928;SDS011;21895;47.072;15.132;2023-04-01T05:32:32;1.63;;;1.10;;
20928;SDS011;21895;47.072;15.132;2023-04-01T05:34:59;1.20;;;1.10;;
20928;SDS011;21895;47.072;15.132;2023-04-01T05:37:25;3.00;;;1.10;;
20928;SDS011;21895;47.072;15.132;2023-04-01T05:39:52;1.53;;;1.03;;
20928;SDS011;21895;47.072;15.132;2023-04-01T05:42:18;2.73;;;1.10;;
20928;SDS011;21895;47.072;15.132;2023-04-01T05:44:45;1.27;;;1.00;;
20928;SDS011;21895;47.072;15.132;2023-04-01T05:47:11;1.40;;;1.10;;
20928;SDS011;21895;47.072;15.132;2023-04-01T05:49:38;1.63;;;1.00;;
20928;SDS011;21895;47.072;15.132;2023-04-01T05:52:04;2.40;;;1.27;;
20928;SDS011;21895;47.072;15.132;2023-04-01T05:54:31;1.63;;;1.27;;
20928;SDS011;21895;47.072;15.132;2023-04-01T05:56:58;1.50;;;1.00;;
20928;SDS011;21895;47.072;15.132;2023-04-01T05:59:25;4.57;;;1.30;;
20928;SDS011;21895;47.072;15.132;2023-04-01T06:01:51;2.80;;;1.40;;
20928;SDS011;21895;47.072;15.132;2023-04-01T06:04:18;5.40;;;2.37;;
20928;SDS011;21895;47.072;15.132;2023-04-01T06:06:45;8.17;;;2.63;;
20928;SDS011;21895;47.072;15.132;2023-04-01T06:09:19;3.57;;;2.33;;
20928;SDS011;21895;47.072;15.132;2023-04-01T06:12:38;6.63;;;2.47;;
20928;SDS011;21895;47.072;15.132;2023-04-01T06:15:36;11.03;;;4.57;;
20928;SDS011;21895;47.072;15.132;2023-04-01T06:20:53;4.50;;;2.50;;
20928;SDS011;21895;47.072;15.132;2023-04-01T06:35:34;7.03;;;3.50;;
20928;SDS011;21895;47.072;15.132;2023-04-01T06:38:28;8.27;;;3.57;;
20928;SDS011;21895;47.072;15.132;2023-04-01T06:43:47;4.37;;;2.53;;
20928;SDS011;21895;47.072;15.132;2023-04-01T06:49:41;7.03;;;2.47;;
20928;SDS011;21895;47.072;15.132;2023-04-01T06:53:10;3.03;;;2.40;;
20928;SDS011;21895;47.072;15.132;2023-04-01T06:55:49;8.20;;;2.43;;
20928;SDS011;21895;47.072;15.132;2023-04-01T06:58:44;3.40;;;2.07;;
20928;SDS011;21895;47.072;15.132;2023-04-01T07:02:13;4.70;;;2.40;;
20928;SDS011;21895;47.072;15.132;2023-04-01T07:04:51;3.50;;;2.13;;
20928;SDS011;21895;47.072;15.132;2023-04-01T07:07:30;3.37;;;2.07;;
20928;SDS011;21895;47.072;15.132;2023-04-01T07:13:32;4.13;;;2.00;;
20928;SDS011;21895;47.072;15.132;2023-04-01T07:17:47;6.37;;;1.20;;
20928;SDS011;21895;47.072;15.132;2023-04-01T07:20:23;2.07;;;1.30;;
20928;SDS011;21895;47.072;15.132;2023-04-01T07:22:57;2.87;;;0.90;;
20928;SDS011;21895;47.072;15.132;2023-04-01T07:25:30;0.90;;;0.80;;
20928;SDS011;21895;47.072;15.132;2023-04-01T07:28:06;0.60;;;0.60;;
20928;SDS011;21895;47.072;15.132;2023-04-01T07:30:48;3.60;;;0.90;;
20928;SDS011;21895;47.072;15.132;2023-04-01T07:33:54;1.70;;;0.80;;
20928;SDS011;21895;47.072;15.132;2023-04-01T07:36:48;0.52;;;0.43;;
20928;SDS011;21895;47.072;15.132;2023-04-01T07:49:08;1.45;;;0.50;;
20928;SDS011;21895;47.072;15.132;2023-04-01T07:51:50;0.95;;;0.40;;
20928;SDS011;21895;47.072;15.132;2023-04-01T07:54:34;1.45;;;0.25;;
20928;SDS011;21895;47.072;15.132;2023-04-01T08:01:47;0.40;;;0.20;;
20928;SDS011;21895;47.072;15.132;2023-04-01T08:04:37;0.47;;;0.33;;
20928;SDS011;21895;47.072;15.132;2023-04-01T08:09:43;0.22;;;0.20;;
20928;SDS011;21895;47.072;15.132;2023-04-01T08:12:38;0.53;;;0.40;;
20928;SDS011;21895;47.072;15.132;2023-04-01T08:21:43;0.20;;;0.20;;
20928;SDS011;21895;47.072;15.132;2023-04-01T08:24:25;0.20;;;0.20;;
20928;SDS011;21895;47.072;15.132;2023-04-01T08:28:16;0.27;;;0.27;;
20928;SDS011;21895;47.072;15.132;2023-04-01T08:31:03;0.22;;;0.22;;
20928;SDS011;21895;47.072;15.132;2023-04-01T08:33:46;0.20;;;0.20;;
20928;SDS011;21895;47.072;15.132;2023-04-01T08:36:21;0.30;;;0.30;;
20928;SDS011;21895;47.072;15.132;2023-04-01T08:39:09;0.75;;;0.30;;
20928;SDS011;21895;47.072;15.132;2023-04-01T08:41:59;2.43;;;0.20;;
20928;SDS011;21895;47.072;15.132;2023-04-01T08:53:37;0.37;;;0.30;;
20928;SDS011;21895;47.072;15.132;2023-04-01T09:01:55;0.83;;;0.40;;
20928;SDS011;21895;47.072;15.132;2023-04-01T09:07:31;1.43;;;0.80;;
20928;SDS011;21895;47.072;15.132;2023-04-01T09:12:31;0.87;;;0.20;;
20928;SDS011;21895;47.072;15.132;2023-04-01T09:21:15;0.13;;;0.13;;
20928;SDS011;21895;47.072;15.132;2023-04-01T09:31:12;0.25;;;0.22;;
20928;SDS011;21895;47.072;15.132;2023-04-01T09:34:13;0.20;;;0.20;;
20928;SDS011;21895;47.072;15.132;2023-04-01T09:42:41;0.30;;;0.20;;
20928;SDS011;21895;47.072;15.132;2023-04-01T09:58:43;0.10;;;0.10;;
20928;SDS011;21895;47.072;15.132;2023-04-01T10:21:25;0.30;;;0.20;;
20928;SDS011;21895;47.072;15.132;2023-04-01T10:24:45;0.70;;;0.50;;
20928;SDS011;21895;47.072;15.132;2023-04-01T10:27:40;1.07;;;0.60;;
20928;SDS011;21895;47.072;15.132;2023-04-01T10:36:47;0.40;;;0.40;;
20928;SDS011;21895;47.072;15.132;2023-04-01T10:39:34;0.30;;;0.30;;
20928;SDS011;21895;47.072;15.132;2023-04-01T10:54:14;0.10;;;0.10;;
20928;SDS011;21895;47.072;15.132;2023-04-01T10:57:37;0.52;;;0.30;;
20928;SDS011;21895;47.072;15.132;2023-04-01T11:07:57;1.03;;;0.47;;
20928;SDS011;21895;47.072;15.132;2023-04-01T11:11:35;0.80;;;0.60;;
20928;SDS011;21895;47.072;15.132;2023-04-01T11:19:58;0.20;;;0.20;;
20928;SDS011;21895;47.072;15.132;2023-04-01T11:24:27;1.05;;;0.60;;
20928;SDS011;21895;47.072;15.132;2023-04-01T11:34:51;0.20;;;0.20;;
20928;SDS011;21895;47.072;15.132;2023-04-01T11:47:56;1.05;;;0.70;;
20928;SDS011;21895;47.072;15.132;2023-04-01T11:52:19;0.50;;;0.40;;
20928;SDS011;21895;47.072;15.132;2023-04-01T12:06:48;0.40;;;0.40;;
20928;SDS011;21895;47.072;15.132;2023-04-01T12:12:58;0.62;;;0.20;;
20928;SDS011;21895;47.072;15.132;2023-04-01T12:21:36;0.13;;;0.13;;
20928;SDS011;21895;47.072;15.132;2023-04-01T12:34:16;0.52;;;0.37;;
20928;SDS011;21895;47.072;15.132;2023-04-01T12:47:12;1.08;;;0.32;;
20928;SDS011;21895;47.072;15.132;2023-04-01T12:55:52;0.60;;;0.30;;
20928;SDS011;21895;47.072;15.132;2023-04-01T12:58:36;0.13;;;0.10;;
20928;SDS011;21895;47.072;15.132;2023-04-01T13:17:08;0.20;;;0.20;;
20928;SDS011;21895;47.072;15.132;2023-04-01T13:26:59;0.20;;;0.20;;
20928;SDS011;21895;47.072;15.132;2023-04-01T13:30:17;1.98;;;0.30;;
20928;SDS011;21895;47.072;15.132;2023-04-01T13:33:17;0.32;;;0.32;;
20928;SDS011;21895;47.072;15.132;2023-04-01T13:36:20;0.20;;;0.20;;
20928;SDS011;21895;47.072;15.132;2023-04-01T13:40:52;0.30;;;0.30;;
20928;SDS011;21895;47.072;15.132;2023-04-01T14:09:50;0.20;;;0.20;;
20928;SDS011;21895;47.072;15.132;2023-04-01T14:14:26;0.50;;;0.30;;
20928;SDS011;21895;47.072;15.132;2023-04-01T14:18:47;1.45;;;0.65;;
20928;SDS011;21895;47.072;15.132;2023-04-01T14:22:36;0.40;;;0.35;;
20928;SDS011;21895;47.072;15.132;2023-04-01T14:43:25;0.37;;;0.30;;
20928;SDS011;21895;47.072;15.132;2023-04-01T14:47:25;0.60;;;0.40;;
20928;SDS011;21895;47.072;15.132;2023-04-01T14:56:11;0.70;;;0.62;;
20928;SDS011;21895;47.072;15.132;2023-04-01T14:58:42;0.30;;;0.30;;
20928;SDS011;21895;47.072;15.132;2023-04-01T15:01:37;0.30;;;0.22;;
20928;SDS011;21895;47.072;15.132;2023-04-01T15:05:49;1.67;;;0.30;;
20928;SDS011;21895;47.072;15.132;2023-04-01T15:11:11;0.73;;;0.50;;
20928;SDS011;21895;47.072;15.132;2023-04-01T15:39:24;1.55;;;0.40;;
20928;SDS011;21895;47.072;15.132;2023-04-01T15:46:55;0.60;;;0.60;;
20928;SDS011;21895;47.072;15.132;2023-04-01T15:53:11;0.62;;;0.45;;
20928;SDS011;21895;47.072;15.132;2023-04-01T15:57:28;1.08;;;0.60;;
20928;SDS011;21895;47.072;15.132;2023-04-01T16:06:27;0.60;;;0.60;;
20928;SDS011;21895;47.072;15.132;2023-04-01T16:10:16;1.12;;;0.60;;
20928;SDS011;21895;47.072;15.132;2023-04-01T16:22:40;3.37;;;0.77;;
20928;SDS011;21895;47.072;15.132;2023-04-01T16:25:32;2.95;;;0.82;;
20928;SDS011;21895;47.072;15.132;2023-04-01T16:43:45;1.50;;;0.70;;
20928;SDS011;21895;47.072;15.132;2023-04-01T16:50:15;0.70;;;0.70;;
20928;SDS011;21895;47.072;15.132;2023-04-01T16:56:54;3.80;;;1.00;;
20928;SDS011;21895;47.072;15.132;2023-04-01T16:59:55;3.53;;;0.80;;
20928;SDS011;21895;47.072;15.132;2023-04-01T17:03:22;1.10;;;0.73;;
20928;SDS011;21895;47.072;15.132;2023-04-01T17:06:01;0.80;;;0.80;;
20928;SDS011;21895;47.072;15.132;2023-04-01T17:09:23;3.20;;;0.68;;
20928;SDS011;21895;47.072;15.132;2023-04-01T17:19:40;2.17;;;0.90;;
20928;SDS011;21895;47.072;15.132;2023-04-01T17:28:04;3.17;;;0.90;;
20928;SDS011;21895;47.072;15.132;2023-04-01T17:31:17;2.43;;;0.97;;
20928;SDS011;21895;47.072;15.132;2023-04-01T17:37:18;1.77;;;1.00;;
20928;SDS011;21895;47.072;15.132;2023-04-01T17:40:14;1.17;;;0.93;;
20928;SDS011;21895;47.072;15.132;2023-04-01T17:44:39;1.00;;;0.90;;
20928;SDS011;21895;47.072;15.132;2023-04-01T17:56:12;3.33;;;2.03;;
20928;SDS011;21895;47.072;15.132;2023-04-01T18:00:38;2.67;;;1.40;;
20928;SDS011;21895;47.072;15.132;2023-04-01T18:04:25;3.67;;;2.40;;
20928;SDS011;21895;47.072;15.132;2023-04-01T18:14:50;15.80;;;5.50;;
20928;SDS011;21895;47.072;15.132;2023-04-01T18:24:23;10.60;;;4.47;;
20928;SDS011;21895;47.072;15.132;2023-04-01T18:30:13;14.73;;;5.13;;
20928;SDS011;21895;47.072;15.132;2023-04-01T18:33:09;13.17;;;5.20;;
20928;SDS011;21895;47.072;15.132;2023-04-01T18:36:39;16.13;;;4.90;;
20928;SDS011;21895;47.072;15.132;2023-04-01T18:39:22;6.97;;;4.27;;
20928;SDS011;21895;47.072;15.132;2023-04-01T18:49:20;7.47;;;3.13;;
20928;SDS011;21895;47.072;15.132;2023-04-01T18:56:11;3.80;;;1.90;;
20928;SDS011;21895;47.072;15.132;2023-04-01T19:07:46;3.43;;;1.40;;
20928;SDS011;21895;47.072;15.132;2023-04-01T19:10:39;2.40;;;0.93;;
20928;SDS011;21895;47.072;15.132;2023-04-01T19:20:45;3.87;;;1.20;;
20928;SDS011;21895;47.072;15.132;2023-04-01T19:23:50;1.93;;;1.10;;
20928;SDS011;21895;47.072;15.132;2023-04-01T19:27:14;3.80;;;0.90;;
20928;SDS011;21895;47.072;15.132;2023-04-01T19:33:35;2.97;;;1.70;;
20928;SDS011;21895;47.072;15.132;2023-04-01T19:36:30;2.73;;;1.50;;
20928;SDS011;21895;47.072;15.132;2023-04-01T19:40:00;1.70;;;1.30;;
20928;SDS011;21895;47.072;15.132;2023-04-01T19:49:09;2.77;;;1.57;;
20928;SDS011;21895;47.072;15.132;2023-04-01T19:53:18;2.13;;;1.10;;
20928;SDS011;21895;47.072;15.132;2023-04-01T20:14:29;13.03;;;3.17;;
20928;SDS011;21895;47.072;15.132;2023-04-01T20:20:54;10.70;;;4.57;;
20928;SDS011;21895;47.072;15.132;2023-04-01T20:23:30;9.93;;;4.70;;
20928;SDS011;21895;47.072;15.132;2023-04-01T20:26:19;8.57;;;3.97;;
20928;SDS011;21895;47.072;15.132;2023-04-01T20:29:05;10.93;;;3.43;;
20928;SDS011;21895;47.072;15.132;2023-04-01T20:53:42;11.83;;;3.77;;
20928;SDS011;21895;47.072;15.132;2023-04-01T20:59:28;10.60;;;4.70;;
20928;SDS011;21895;47.072;15.132;2023-04-01T21:02:46;7.77;;;3.57;;
20928;SDS011;21895;47.072;15.132;2023-04-01T21:17:08;5.43;;;2.60;;
20928;SDS011;21895;47.072;15.132;2023-04-01T21:23:02;6.10;;;2.50;;
20928;SDS011;21895;47.072;15.132;2023-04-01T21:28:12;6.53;;;2.67;;
20928;SDS011;21895;47.072;15.132;2023-04-01T21:31:28;8.17;;;4.10;;
20928;SDS011;21895;47.072;15.132;2023-04-01T21:42:51;3.23;;;1.70;;
20928;SDS011;21895;47.072;15.132;2023-04-01T21:47:07;6.10;;;2.03;;
20928;SDS011;21895;47.072;15.132;2023-04-01T21:51:33;2.90;;;1.60;;
20928;SDS011;21895;47.072;15.132;2023-04-01T21:55:06;6.17;;;2.10;;
20928;SDS011;21895;47.072;15.132;2023-04-01T22:01:23;2.77;;;1.63;;
20928;SDS011;21895;47.072;15.132;2023-04-01T22:04:31;2.07;;;1.37;;
20928;SDS011;21895;47.072;15.132;2023-04-01T22:19:20;3.97;;;1.23;;
20928;SDS011;21895;47.072;15.132;2023-04-01T22:23:42;2.67;;;1.60;;
20928;SDS011;21895;47.072;15.132;2023-04-01T22:27:03;3.73;;;1.90;;
20928;SDS011;21895;47.072;15.132;2023-04-01T22:39:51;4.53;;;1.43;;
20928;SDS011;21895;47.072;15.132;2023-04-01T22:42:47;3.90;;;1.70;;
20928;SDS011;21895;47.072;15.132;2023-04-01T22:54:04;8.07;;;1.80;;
20928;SDS011;21895;47.072;15.132;2023-04-01T22:56:57;6.13;;;1.80;;
20928;SDS011;21895;47.072;15.132;2023-04-01T23:00:39;5.73;;;2.10;;
20928;SDS011;21895;47.072;15.132;2023-04-01T23:03:27;3.93;;;1.87;;
20928;SDS011;21895;47.072;15.132;2023-04-01T23:05:58;4.87;;;2.00;;
20928;SDS011;21895;47.072;15.132;2023-04-01T23:14:31;6.27;;;1.70;;
20928;SDS011;21895;47.072;15.132;2023-04-01T23:17:31;3.10;;;1.80;;
20928;SDS011;21895;47.072;15.132;2023-04-01T23:21:34;4.37;;;1.60;;
20928;SDS011;21895;47.072;15.132;2023-04-01T23:24:22;3.53;;;1.87;;
20928;SDS011;21895;47.072;15.132;2023-04-01T23:27:03;3.37;;;1.70;;
20928;SDS011;21895;47.072;15.132;2023-04-01T23:29:43;4.53;;;1.60;;
20928;SDS011;21895;47.072;15.132;2023-04-01T23:32:16;3.63;;;1.60;;
20928;SDS011;21895;47.072;15.132;2023-04-01T23:34:48;2.17;;;1.37;;
20928;SDS011;21895;47.072;15.132;2023-04-01T23:37:22;2.17;;;1.40;;
20928;SDS011;21895;47.072;15.132;2023-04-01T23:39:54;2.60;;;1.60;;
20928;SDS011;21895;47.072;15.132;2023-04-01T23:42:30;5.03;;;1.67;;
20928;SDS011;21895;47.072;15.132;2023-04-01T23:45:11;3.63;;;1.63;;
20928;SDS011;21895;47.072;15.132;2023-04-01T23:47:45;3.40;;;1.67;;
20928;SDS011;21895;47.072;15.132;2023-04-01T23:50:19;3.37;;;1.83;;
20928;SDS011;21895;47.072;15.132;2023-04-01T23:52:57;4.90;;;1.77;;
20928;SDS011;21895;47.072;15.132;2023-04-01T23:55:37;2.47;;;1.50;;
